sensor_id;sensor_type;location;lat;lon;timestamp;temperature;humidity
13817;DHT22;6979;52.116;5.286;2022-07-30T00:01:00;22.30;93.00
13817;DHT22;6979;52.116;5.286;2022-07-30T00:03:27;22.20;93.30
13817;DHT22;6979;52.116;5.286;2022-07-30T00:05:54;22.20;93.40
13817;DHT22;6979;52.116;5.286;2022-07-30T00:08:21;22.10;93.40
13817;DHT22;6979;52.116;5.286;2022-07-30T00:10:48;22.10;93.60
13817;DHT22;6979;52.116;5.286;2022-07-30T00:13:15;22.00;93.90
13817;DHT22;6979;52.116;5.286;2022-07-30T00:15:42;22.00;94.10
13817;DHT22;6979;52.116;5.286;2022-07-30T00:18:10;21.90;94.30
13817;DHT22;6979;52.116;5.286;2022-07-30T00:20:37;21.90;94.60
13817;DHT22;6979;52.116;5.286;2022-07-30T00:23:05;21.90;94.80
13817;DHT22;6979;52.116;5.286;2022-07-30T00:25:32;21.80;94.90
13817;DHT22;6979;52.116;5.286;2022-07-30T00:27:59;21.80;95.20
13817;DHT22;6979;52.116;5.286;2022-07-30T00:30:25;21.80;95.50
13817;DHT22;6979;52.116;5.286;2022-07-30T00:32:52;21.70;95.70
13817;DHT22;6979;52.116;5.286;2022-07-30T00:35:20;21.70;95.80
13817;DHT22;6979;52.116;5.286;2022-07-30T00:37:47;21.60;96.00
13817;DHT22;6979;52.116;5.286;2022-07-30T00:40:14;21.60;96.20
13817;DHT22;6979;52.116;5.286;2022-07-30T00:42:43;21.60;96.50
13817;DHT22;6979;52.116;5.286;2022-07-30T00:45:12;21.60;96.80
13817;DHT22;6979;52.116;5.286;2022-07-30T00:47:40;21.50;97.00
13817;DHT22;6979;52.116;5.286;2022-07-30T00:50:09;21.50;97.20
13817;DHT22;6979;52.116;5.286;2022-07-30T00:52:38;21.50;97.50
13817;DHT22;6979;52.116;5.286;2022-07-30T00:55:06;21.50;97.60
13817;DHT22;6979;52.116;5.286;2022-07-30T00:57:33;21.50;97.70
13817;DHT22;6979;52.116;5.286;2022-07-30T01:00:00;21.50;97.90
13817;DHT22;6979;52.116;5.286;2022-07-30T01:02:27;21.40;98.00
13817;DHT22;6979;52.116;5.286;2022-07-30T01:04:54;21.40;98.20
13817;DHT22;6979;52.116;5.286;2022-07-30T01:07:21;21.40;98.10
13817;DHT22;6979;52.116;5.286;2022-07-30T01:09:49;21.40;98.50
13817;DHT22;6979;52.116;5.286;2022-07-30T01:12:19;21.40;98.70
13817;DHT22;6979;52.116;5.286;2022-07-30T01:14:47;21.30;98.80
13817;DHT22;6979;52.116;5.286;2022-07-30T01:17:14;21.30;99.00
13817;DHT22;6979;52.116;5.286;2022-07-30T01:19:42;21.30;99.20
13817;DHT22;6979;52.116;5.286;2022-07-30T01:22:23;21.30;99.40
13817;DHT22;6979;52.116;5.286;2022-07-30T01:24:57;21.20;99.70
13817;DHT22;6979;52.116;5.286;2022-07-30T01:27:28;21.20;99.90
13817;DHT22;6979;52.116;5.286;2022-07-30T01:29:56;21.20;99.90
13817;DHT22;6979;52.116;5.286;2022-07-30T01:32:25;21.20;99.90
13817;DHT22;6979;52.116;5.286;2022-07-30T01:34:54;21.10;99.90
13817;DHT22;6979;52.116;5.286;2022-07-30T01:37:24;21.10;99.90
13817;DHT22;6979;52.116;5.286;2022-07-30T01:39:52;21.10;99.90
13817;DHT22;6979;52.116;5.286;2022-07-30T01:42:20;21.10;99.90
13817;DHT22;6979;52.116;5.286;2022-07-30T01:44:51;21.10;99.90
13817;DHT22;6979;52.116;5.286;2022-07-30T01:47:19;21.00;99.90
13817;DHT22;6979;52.116;5.286;2022-07-30T01:49:48;21.00;99.90
13817;DHT22;6979;52.116;5.286;2022-07-30T01:52:17;21.00;99.90
13817;DHT22;6979;52.116;5.286;2022-07-30T01:54:46;20.90;99.90
13817;DHT22;6979;52.116;5.286;2022-07-30T01:57:15;20.90;99.90
13817;DHT22;6979;52.116;5.286;2022-07-30T01:59:48;20.90;99.90
13817;DHT22;6979;52.116;5.286;2022-07-30T02:02:18;20.90;99.90
13817;DHT22;6979;52.116;5.286;2022-07-30T02:04:46;20.80;99.90
13817;DHT22;6979;52.116;5.286;2022-07-30T02:07:16;20.80;99.90
13817;DHT22;6979;52.116;5.286;2022-07-30T02:09:50;20.80;99.90
13817;DHT22;6979;52.116;5.286;2022-07-30T02:12:22;20.80;99.90
13817;DHT22;6979;52.116;5.286;2022-07-30T02:15:08;20.80;99.90
13817;DHT22;6979;52.116;5.286;2022-07-30T02:17:41;20.70;99.90
13817;DHT22;6979;52.116;5.286;2022-07-30T02:20:10;20.70;99.90
13817;DHT22;6979;52.116;5.286;2022-07-30T02:22:42;20.70;99.90
13817;DHT22;6979;52.116;5.286;2022-07-30T02:25:14;20.70;99.90
13817;DHT22;6979;52.116;5.286;2022-07-30T02:27:43;20.70;99.90
13817;DHT22;6979;52.116;5.286;2022-07-30T02:30:15;20.60;99.90
13817;DHT22;6979;52.116;5.286;2022-07-30T02:32:44;20.60;99.90
13817;DHT22;6979;52.116;5.286;2022-07-30T02:35:17;20.60;99.90
13817;DHT22;6979;52.116;5.286;2022-07-30T02:37:47;20.60;99.90
13817;DHT22;6979;52.116;5.286;2022-07-30T02:40:17;20.60;99.90
13817;DHT22;6979;52.116;5.286;2022-07-30T02:42:46;20.60;99.90
13817;DHT22;6979;52.116;5.286;2022-07-30T02:45:18;20.50;99.90
13817;DHT22;6979;52.116;5.286;2022-07-30T02:47:49;20.50;99.90
13817;DHT22;6979;52.116;5.286;2022-07-30T02:50:17;20.50;99.90
13817;DHT22;6979;52.116;5.286;2022-07-30T02:52:46;20.50;99.90
13817;DHT22;6979;52.116;5.286;2022-07-30T02:55:16;20.40;99.90
13817;DHT22;6979;52.116;5.286;2022-07-30T02:57:45;20.40;99.90
13817;DHT22;6979;52.116;5.286;2022-07-30T03:00:13;20.40;99.90
13817;DHT22;6979;52.116;5.286;2022-07-30T03:02:41;20.40;99.90
13817;DHT22;6979;52.116;5.286;2022-07-30T03:05:10;20.30;99.90
13817;DHT22;6979;52.116;5.286;2022-07-30T03:07:39;20.30;99.90
13817;DHT22;6979;52.116;5.286;2022-07-30T03:10:07;20.30;99.90
13817;DHT22;6979;52.116;5.286;2022-07-30T03:12:35;20.30;99.90
13817;DHT22;6979;52.116;5.286;2022-07-30T03:15:03;20.30;99.90
13817;DHT22;6979;52.116;5.286;2022-07-30T03:17:40;20.20;99.90
13817;DHT22;6979;52.116;5.286;2022-07-30T03:20:12;20.20;99.90
13817;DHT22;6979;52.116;5.286;2022-07-30T03:22:42;20.20;99.90
13817;DHT22;6979;52.116;5.286;2022-07-30T03:25:13;20.20;99.90
13817;DHT22;6979;52.116;5.286;2022-07-30T03:27:41;20.10;99.90
13817;DHT22;6979;52.116;5.286;2022-07-30T03:30:09;20.10;99.90
13817;DHT22;6979;52.116;5.286;2022-07-30T03:32:38;20.10;99.90
13817;DHT22;6979;52.116;5.286;2022-07-30T03:35:06;20.00;99.90
13817;DHT22;6979;52.116;5.286;2022-07-30T03:37:36;20.00;99.90
13817;DHT22;6979;52.116;5.286;2022-07-30T03:40:06;20.00;99.90
13817;DHT22;6979;52.116;5.286;2022-07-30T03:42:34;19.90;99.90
13817;DHT22;6979;52.116;5.286;2022-07-30T03:45:03;19.90;99.90
13817;DHT22;6979;52.116;5.286;2022-07-30T03:47:32;19.90;99.90
13817;DHT22;6979;52.116;5.286;2022-07-30T03:50:01;19.90;99.90
13817;DHT22;6979;52.116;5.286;2022-07-30T03:52:32;19.80;99.90
13817;DHT22;6979;52.116;5.286;2022-07-30T03:55:02;19.80;99.90
13817;DHT22;6979;52.116;5.286;2022-07-30T03:57:47;19.80;99.90
13817;DHT22;6979;52.116;5.286;2022-07-30T04:00:16;19.80;99.90
13817;DHT22;6979;52.116;5.286;2022-07-30T04:02:48;19.70;99.90
13817;DHT22;6979;52.116;5.286;2022-07-30T04:05:26;19.70;99.90
13817;DHT22;6979;52.116;5.286;2022-07-30T04:07:58;19.70;99.90
13817;DHT22;6979;52.116;5.286;2022-07-30T04:10:27;19.70;99.90
13817;DHT22;6979;52.116;5.286;2022-07-30T04:12:56;19.70;99.90
13817;DHT22;6979;52.116;5.286;2022-07-30T04:15:25;19.70;99.90
13817;DHT22;6979;52.116;5.286;2022-07-30T04:17:56;19.60;99.90
13817;DHT22;6979;52.116;5.286;2022-07-30T04:20:28;19.60;99.90
13817;DHT22;6979;52.116;5.286;2022-07-30T04:22:58;19.60;99.90
13817;DHT22;6979;52.116;5.286;2022-07-30T04:25:27;19.50;99.90
13817;DHT22;6979;52.116;5.286;2022-07-30T04:27:54;19.50;99.90
13817;DHT22;6979;52.116;5.286;2022-07-30T04:30:21;19.50;99.90
13817;DHT22;6979;52.116;5.286;2022-07-30T04:32:48;19.50;99.90
13817;DHT22;6979;52.116;5.286;2022-07-30T04:35:35;19.50;99.90
13817;DHT22;6979;52.116;5.286;2022-07-30T04:38:14;19.50;99.90
13817;DHT22;6979;52.116;5.286;2022-07-30T04:40:46;19.50;99.90
13817;DHT22;6979;52.116;5.286;2022-07-30T04:43:13;19.50;99.90
13817;DHT22;6979;52.116;5.286;2022-07-30T04:45:41;19.50;99.90
13817;DHT22;6979;52.116;5.286;2022-07-30T04:48:09;19.40;99.90
13817;DHT22;6979;52.116;5.286;2022-07-30T04:50:44;19.50;99.90
13817;DHT22;6979;52.116;5.286;2022-07-30T04:53:15;19.40;99.90
13817;DHT22;6979;52.116;5.286;2022-07-30T04:55:50;19.40;99.90
13817;DHT22;6979;52.116;5.286;2022-07-30T04:58:19;19.40;99.90
13817;DHT22;6979;52.116;5.286;2022-07-30T05:00:49;19.50;99.90
13817;DHT22;6979;52.116;5.286;2022-07-30T05:03:22;19.50;99.90
13817;DHT22;6979;52.116;5.286;2022-07-30T05:05:52;19.50;99.90
13817;DHT22;6979;52.116;5.286;2022-07-30T05:08:21;19.50;99.90
13817;DHT22;6979;52.116;5.286;2022-07-30T05:10:50;19.50;99.90
13817;DHT22;6979;52.116;5.286;2022-07-30T05:13:17;19.50;99.90
13817;DHT22;6979;52.116;5.286;2022-07-30T05:15:45;19.60;99.90
13817;DHT22;6979;52.116;5.286;2022-07-30T05:18:15;19.60;99.90
13817;DHT22;6979;52.116;5.286;2022-07-30T05:20:42;19.60;99.90
13817;DHT22;6979;52.116;5.286;2022-07-30T05:23:21;19.60;99.90
13817;DHT22;6979;52.116;5.286;2022-07-30T05:26:18;19.60;99.90
13817;DHT22;6979;52.116;5.286;2022-07-30T05:28:45;19.70;99.90
13817;DHT22;6979;52.116;5.286;2022-07-30T05:31:13;19.70;99.90
13817;DHT22;6979;52.116;5.286;2022-07-30T05:33:50;19.80;99.90
13817;DHT22;6979;52.116;5.286;2022-07-30T05:36:19;19.80;99.90
13817;DHT22;6979;52.116;5.286;2022-07-30T05:38:46;19.80;99.90
13817;DHT22;6979;52.116;5.286;2022-07-30T05:41:37;19.80;99.90
13817;DHT22;6979;52.116;5.286;2022-07-30T05:44:11;19.90;99.90
13817;DHT22;6979;52.116;5.286;2022-07-30T05:46:38;20.00;99.90
13817;DHT22;6979;52.116;5.286;2022-07-30T05:49:05;20.00;99.90
13817;DHT22;6979;52.116;5.286;2022-07-30T05:51:32;20.00;99.90
13817;DHT22;6979;52.116;5.286;2022-07-30T05:53:59;20.10;99.90
13817;DHT22;6979;52.116;5.286;2022-07-30T05:56:53;20.20;99.90
13817;DHT22;6979;52.116;5.286;2022-07-30T05:59:36;20.20;99.90
13817;DHT22;6979;52.116;5.286;2022-07-30T06:02:05;20.30;99.90
13817;DHT22;6979;52.116;5.286;2022-07-30T06:04:52;20.30;99.90
13817;DHT22;6979;52.116;5.286;2022-07-30T06:07:19;20.40;99.90
13817;DHT22;6979;52.116;5.286;2022-07-30T06:09:46;20.40;99.90
13817;DHT22;6979;52.116;5.286;2022-07-30T06:12:15;20.50;99.90
13817;DHT22;6979;52.116;5.286;2022-07-30T06:14:42;20.60;99.90
13817;DHT22;6979;52.116;5.286;2022-07-30T06:17:13;20.60;99.90
13817;DHT22;6979;52.116;5.286;2022-07-30T06:20:17;20.60;99.90
13817;DHT22;6979;52.116;5.286;2022-07-30T06:22:53;20.70;99.90
13817;DHT22;6979;52.116;5.286;2022-07-30T06:25:31;20.80;99.90
13817;DHT22;6979;52.116;5.286;2022-07-30T06:27:59;20.80;99.90
13817;DHT22;6979;52.116;5.286;2022-07-30T06:30:26;20.90;99.90
13817;DHT22;6979;52.116;5.286;2022-07-30T06:32:54;20.90;99.90
13817;DHT22;6979;52.116;5.286;2022-07-30T06:35:21;21.00;99.90
13817;DHT22;6979;52.116;5.286;2022-07-30T06:37:48;21.00;99.90
13817;DHT22;6979;52.116;5.286;2022-07-30T06:40:15;21.10;99.90
13817;DHT22;6979;52.116;5.286;2022-07-30T06:42:59;21.20;99.90
13817;DHT22;6979;52.116;5.286;2022-07-30T06:45:34;21.20;99.90
13817;DHT22;6979;52.116;5.286;2022-07-30T06:48:16;21.30;99.90
13817;DHT22;6979;52.116;5.286;2022-07-30T06:50:43;21.30;99.90
13817;DHT22;6979;52.116;5.286;2022-07-30T06:53:10;21.40;99.90
13817;DHT22;6979;52.116;5.286;2022-07-30T06:56:07;21.50;99.90
13817;DHT22;6979;52.116;5.286;2022-07-30T06:58:44;21.50;99.90
13817;DHT22;6979;52.116;5.286;2022-07-30T07:01:26;21.60;99.90
13817;DHT22;6979;52.116;5.286;2022-07-30T07:03:54;21.70;99.90
13817;DHT22;6979;52.116;5.286;2022-07-30T07:06:21;21.70;99.90
13817;DHT22;6979;52.116;5.286;2022-07-30T07:08:48;21.70;99.90
13817;DHT22;6979;52.116;5.286;2022-07-30T07:11:19;21.80;99.90
13817;DHT22;6979;52.116;5.286;2022-07-30T07:13:51;21.90;99.90
13817;DHT22;6979;52.116;5.286;2022-07-30T07:16:26;21.90;99.90
13817;DHT22;6979;52.116;5.286;2022-07-30T07:18:54;22.00;99.90
13817;DHT22;6979;52.116;5.286;2022-07-30T07:21:21;22.10;99.90
13817;DHT22;6979;52.116;5.286;2022-07-30T07:23:50;22.20;99.90
13817;DHT22;6979;52.116;5.286;2022-07-30T07:26:37;22.40;99.90
13817;DHT22;6979;52.116;5.286;2022-07-30T07:29:05;22.50;99.90
13817;DHT22;6979;52.116;5.286;2022-07-30T07:31:33;22.60;99.90
13817;DHT22;6979;52.116;5.286;2022-07-30T07:34:02;22.70;99.90
13817;DHT22;6979;52.116;5.286;2022-07-30T07:36:29;22.80;99.90
13817;DHT22;6979;52.116;5.286;2022-07-30T07:38:56;22.90;99.90
13817;DHT22;6979;52.116;5.286;2022-07-30T07:41:23;23.00;99.90
13817;DHT22;6979;52.116;5.286;2022-07-30T07:43:50;23.00;99.90
13817;DHT22;6979;52.116;5.286;2022-07-30T07:46:28;23.10;99.90
13817;DHT22;6979;52.116;5.286;2022-07-30T07:48:55;23.20;99.90
13817;DHT22;6979;52.116;5.286;2022-07-30T07:51:26;23.40;99.90
13817;DHT22;6979;52.116;5.286;2022-07-30T07:53:56;23.50;99.90
13817;DHT22;6979;52.116;5.286;2022-07-30T07:56:24;23.50;99.90
13817;DHT22;6979;52.116;5.286;2022-07-30T07:58:51;23.60;99.90
13817;DHT22;6979;52.116;5.286;2022-07-30T08:01:19;23.70;99.90
13817;DHT22;6979;52.116;5.286;2022-07-30T08:04:06;23.70;99.90
13817;DHT22;6979;52.116;5.286;2022-07-30T08:07:12;23.80;99.90
13817;DHT22;6979;52.116;5.286;2022-07-30T08:10:08;23.80;99.90
13817;DHT22;6979;52.116;5.286;2022-07-30T08:13:01;23.80;99.90
13817;DHT22;6979;52.116;5.286;2022-07-30T08:15:32;23.80;99.90
13817;DHT22;6979;52.116;5.286;2022-07-30T08:18:37;23.90;99.90
13817;DHT22;6979;52.116;5.286;2022-07-30T08:21:17;23.90;99.90
13817;DHT22;6979;52.116;5.286;2022-07-30T08:23:44;23.90;99.90
13817;DHT22;6979;52.116;5.286;2022-07-30T08:26:11;23.90;99.90
13817;DHT22;6979;52.116;5.286;2022-07-30T08:28:38;23.90;99.90
13817;DHT22;6979;52.116;5.286;2022-07-30T08:31:06;23.90;99.90
13817;DHT22;6979;52.116;5.286;2022-07-30T08:33:33;23.90;99.90
13817;DHT22;6979;52.116;5.286;2022-07-30T08:36:01;23.90;99.90
13817;DHT22;6979;52.116;5.286;2022-07-30T08:38:29;23.90;99.90
13817;DHT22;6979;52.116;5.286;2022-07-30T08:40:57;24.00;99.90
13817;DHT22;6979;52.116;5.286;2022-07-30T08:43:24;24.00;99.90
13817;DHT22;6979;52.116;5.286;2022-07-30T08:45:55;24.00;99.80
13817;DHT22;6979;52.116;5.286;2022-07-30T08:48:40;24.00;99.50
13817;DHT22;6979;52.116;5.286;2022-07-30T08:51:08;24.00;99.60
13817;DHT22;6979;52.116;5.286;2022-07-30T08:54:05;24.00;99.80
13817;DHT22;6979;52.116;5.286;2022-07-30T08:56:36;24.00;99.80
13817;DHT22;6979;52.116;5.286;2022-07-30T08:59:03;24.10;99.60
13817;DHT22;6979;52.116;5.286;2022-07-30T09:01:30;24.10;99.90
13817;DHT22;6979;52.116;5.286;2022-07-30T09:03:57;24.20;99.90
13817;DHT22;6979;52.116;5.286;2022-07-30T09:06:26;24.40;99.90
13817;DHT22;6979;52.116;5.286;2022-07-30T09:08:53;24.80;99.90
13817;DHT22;6979;52.116;5.286;2022-07-30T09:11:21;25.30;99.90
13817;DHT22;6979;52.116;5.286;2022-07-30T09:13:49;25.80;98.80
13817;DHT22;6979;52.116;5.286;2022-07-30T09:16:21;26.40;96.20
13817;DHT22;6979;52.116;5.286;2022-07-30T09:18:51;26.90;94.70
13817;DHT22;6979;52.116;5.286;2022-07-30T09:21:20;27.40;94.40
13817;DHT22;6979;52.116;5.286;2022-07-30T09:23:55;27.80;93.90
13817;DHT22;6979;52.116;5.286;2022-07-30T09:26:55;28.20;93.30
13817;DHT22;6979;52.116;5.286;2022-07-30T09:29:40;28.50;91.80
13817;DHT22;6979;52.116;5.286;2022-07-30T09:32:46;28.70;91.70
13817;DHT22;6979;52.116;5.286;2022-07-30T09:35:25;28.90;89.40
13817;DHT22;6979;52.116;5.286;2022-07-30T09:38:12;29.00;89.10
13817;DHT22;6979;52.116;5.286;2022-07-30T09:40:51;29.10;86.40
13817;DHT22;6979;52.116;5.286;2022-07-30T09:43:46;29.30;84.10
13817;DHT22;6979;52.116;5.286;2022-07-30T09:46:40;29.60;83.50
13817;DHT22;6979;52.116;5.286;2022-07-30T09:49:13;29.90;83.40
13817;DHT22;6979;52.116;5.286;2022-07-30T09:51:41;30.30;80.80
13817;DHT22;6979;52.116;5.286;2022-07-30T09:54:09;30.70;79.10
13817;DHT22;6979;52.116;5.286;2022-07-30T09:56:36;31.00;77.90
13817;DHT22;6979;52.116;5.286;2022-07-30T09:59:05;31.30;78.90
13817;DHT22;6979;52.116;5.286;2022-07-30T10:01:50;31.60;79.40
13817;DHT22;6979;52.116;5.286;2022-07-30T10:04:38;32.10;77.10
13817;DHT22;6979;52.116;5.286;2022-07-30T10:07:17;32.60;76.80
13817;DHT22;6979;52.116;5.286;2022-07-30T10:09:46;33.10;74.60
13817;DHT22;6979;52.116;5.286;2022-07-30T10:12:16;33.50;73.30
13817;DHT22;6979;52.116;5.286;2022-07-30T10:14:49;33.80;73.20
13817;DHT22;6979;52.116;5.286;2022-07-30T10:17:18;34.20;71.10
13817;DHT22;6979;52.116;5.286;2022-07-30T10:20:13;34.50;70.50
13817;DHT22;6979;52.116;5.286;2022-07-30T10:22:59;34.60;69.80
13817;DHT22;6979;52.116;5.286;2022-07-30T10:25:36;34.80;69.60
13817;DHT22;6979;52.116;5.286;2022-07-30T10:28:26;34.80;68.00
13817;DHT22;6979;52.116;5.286;2022-07-30T10:30:55;34.90;68.20
13817;DHT22;6979;52.116;5.286;2022-07-30T10:33:27;35.00;67.80
13817;DHT22;6979;52.116;5.286;2022-07-30T10:35:55;35.10;67.80
13817;DHT22;6979;52.116;5.286;2022-07-30T10:38:25;35.20;68.20
13817;DHT22;6979;52.116;5.286;2022-07-30T10:40:56;35.30;68.20
13817;DHT22;6979;52.116;5.286;2022-07-30T10:43:54;35.50;67.80
13817;DHT22;6979;52.116;5.286;2022-07-30T10:46:35;35.70;67.90
13817;DHT22;6979;52.116;5.286;2022-07-30T10:49:08;35.80;65.70
13817;DHT22;6979;52.116;5.286;2022-07-30T10:51:42;35.80;66.00
13817;DHT22;6979;52.116;5.286;2022-07-30T10:54:40;35.80;65.70
13817;DHT22;6979;52.116;5.286;2022-07-30T10:57:09;35.70;65.60
13817;DHT22;6979;52.116;5.286;2022-07-30T11:00:06;35.70;65.00
13817;DHT22;6979;52.116;5.286;2022-07-30T11:02:35;35.60;64.70
13817;DHT22;6979;52.116;5.286;2022-07-30T11:05:21;35.50;64.60
13817;DHT22;6979;52.116;5.286;2022-07-30T11:07:48;35.30;65.00
13817;DHT22;6979;52.116;5.286;2022-07-30T11:10:33;35.20;65.50
13817;DHT22;6979;52.116;5.286;2022-07-30T11:13:00;35.20;66.00
13817;DHT22;6979;52.116;5.286;2022-07-30T11:15:51;35.30;65.70
13817;DHT22;6979;52.116;5.286;2022-07-30T11:18:21;35.40;66.20
13817;DHT22;6979;52.116;5.286;2022-07-30T11:21:13;35.60;65.30
13817;DHT22;6979;52.116;5.286;2022-07-30T11:23:40;35.70;65.20
13817;DHT22;6979;52.116;5.286;2022-07-30T11:26:09;35.90;64.30
13817;DHT22;6979;52.116;5.286;2022-07-30T11:28:39;36.00;64.20
13817;DHT22;6979;52.116;5.286;2022-07-30T11:31:27;36.10;63.50
13817;DHT22;6979;52.116;5.286;2022-07-30T11:34:24;36.20;63.50
13817;DHT22;6979;52.116;5.286;2022-07-30T11:37:10;36.30;63.00
13817;DHT22;6979;52.116;5.286;2022-07-30T11:40:06;36.40;62.70
13817;DHT22;6979;52.116;5.286;2022-07-30T11:42:38;36.40;62.70
13817;DHT22;6979;52.116;5.286;2022-07-30T11:45:23;36.40;62.40
13817;DHT22;6979;52.116;5.286;2022-07-30T11:47:56;36.40;62.00
13817;DHT22;6979;52.116;5.286;2022-07-30T11:50:27;36.40;61.40
13817;DHT22;6979;52.116;5.286;2022-07-30T11:52:56;36.30;61.50
13817;DHT22;6979;52.116;5.286;2022-07-30T11:55:28;36.30;61.30
13817;DHT22;6979;52.116;5.286;2022-07-30T11:57:56;36.20;61.00
13817;DHT22;6979;52.116;5.286;2022-07-30T12:00:24;36.10;61.00
13817;DHT22;6979;52.116;5.286;2022-07-30T12:02:53;36.00;61.00
13817;DHT22;6979;52.116;5.286;2022-07-30T12:05:26;35.90;61.10
13817;DHT22;6979;52.116;5.286;2022-07-30T12:07:56;35.80;61.60
13817;DHT22;6979;52.116;5.286;2022-07-30T12:10:23;35.70;61.90
13817;DHT22;6979;52.116;5.286;2022-07-30T12:12:50;35.70;62.30
13817;DHT22;6979;52.116;5.286;2022-07-30T12:15:28;35.70;62.30
13817;DHT22;6979;52.116;5.286;2022-07-30T12:17:55;35.70;61.30
13817;DHT22;6979;52.116;5.286;2022-07-30T12:20:22;35.70;61.20
13817;DHT22;6979;52.116;5.286;2022-07-30T12:22:50;35.60;61.20
13817;DHT22;6979;52.116;5.286;2022-07-30T12:25:18;35.60;60.40
13817;DHT22;6979;52.116;5.286;2022-07-30T12:27:45;35.40;60.40
13817;DHT22;6979;52.116;5.286;2022-07-30T12:30:14;35.20;60.00
13817;DHT22;6979;52.116;5.286;2022-07-30T12:32:41;34.90;60.40
13817;DHT22;6979;52.116;5.286;2022-07-30T12:35:08;34.70;61.40
13817;DHT22;6979;52.116;5.286;2022-07-30T12:37:35;34.50;61.60
13817;DHT22;6979;52.116;5.286;2022-07-30T12:40:13;34.30;61.60
13817;DHT22;6979;52.116;5.286;2022-07-30T12:42:48;34.10;61.80
13817;DHT22;6979;52.116;5.286;2022-07-30T12:45:30;34.10;62.90
13817;DHT22;6979;52.116;5.286;2022-07-30T12:47:57;34.00;62.50
13817;DHT22;6979;52.116;5.286;2022-07-30T12:50:25;33.90;62.20
13817;DHT22;6979;52.116;5.286;2022-07-30T12:52:53;33.90;62.50
13817;DHT22;6979;52.116;5.286;2022-07-30T12:55:30;33.80;62.50
13817;DHT22;6979;52.116;5.286;2022-07-30T12:57:59;33.70;62.00
13817;DHT22;6979;52.116;5.286;2022-07-30T13:00:28;33.60;62.40
13817;DHT22;6979;52.116;5.286;2022-07-30T13:02:56;33.50;62.40
13817;DHT22;6979;52.116;5.286;2022-07-30T13:05:41;33.40;62.80
13817;DHT22;6979;52.116;5.286;2022-07-30T13:08:08;33.30;62.80
13817;DHT22;6979;52.116;5.286;2022-07-30T13:10:37;33.30;63.10
13817;DHT22;6979;52.116;5.286;2022-07-30T13:13:06;33.30;62.80
13817;DHT22;6979;52.116;5.286;2022-07-30T13:15:33;33.30;62.70
13817;DHT22;6979;52.116;5.286;2022-07-30T13:18:00;33.30;63.00
13817;DHT22;6979;52.116;5.286;2022-07-30T13:20:28;33.30;63.40
13817;DHT22;6979;52.116;5.286;2022-07-30T13:22:55;33.30;63.20
13817;DHT22;6979;52.116;5.286;2022-07-30T13:25:22;33.30;63.20
13817;DHT22;6979;52.116;5.286;2022-07-30T13:27:50;33.30;63.00
13817;DHT22;6979;52.116;5.286;2022-07-30T13:30:17;33.30;63.00
13817;DHT22;6979;52.116;5.286;2022-07-30T13:32:44;33.50;63.10
13817;DHT22;6979;52.116;5.286;2022-07-30T13:35:10;33.60;63.00
13817;DHT22;6979;52.116;5.286;2022-07-30T13:37:37;33.70;62.90
13817;DHT22;6979;52.116;5.286;2022-07-30T13:40:05;33.80;62.90
13817;DHT22;6979;52.116;5.286;2022-07-30T13:42:32;33.90;62.30
13817;DHT22;6979;52.116;5.286;2022-07-30T13:45:00;34.00;62.30
13817;DHT22;6979;52.116;5.286;2022-07-30T13:47:27;34.00;61.90
13817;DHT22;6979;52.116;5.286;2022-07-30T13:49:54;34.00;62.60
13817;DHT22;6979;52.116;5.286;2022-07-30T13:52:21;33.90;62.00
13817;DHT22;6979;52.116;5.286;2022-07-30T13:54:47;33.90;62.70
13817;DHT22;6979;52.116;5.286;2022-07-30T13:57:17;33.80;62.70
13817;DHT22;6979;52.116;5.286;2022-07-30T13:59:43;33.90;62.90
13817;DHT22;6979;52.116;5.286;2022-07-30T14:02:12;33.90;62.80
13817;DHT22;6979;52.116;5.286;2022-07-30T14:04:40;34.00;63.10
13817;DHT22;6979;52.116;5.286;2022-07-30T14:07:09;34.10;62.60
13817;DHT22;6979;52.116;5.286;2022-07-30T14:09:36;34.10;62.40
13817;DHT22;6979;52.116;5.286;2022-07-30T14:12:04;34.30;62.30
13817;DHT22;6979;52.116;5.286;2022-07-30T14:14:31;34.40;62.00
13817;DHT22;6979;52.116;5.286;2022-07-30T14:16:57;34.40;61.50
13817;DHT22;6979;52.116;5.286;2022-07-30T14:19:26;34.50;61.60
13817;DHT22;6979;52.116;5.286;2022-07-30T14:21:52;34.40;61.40
13817;DHT22;6979;52.116;5.286;2022-07-30T14:24:20;34.40;61.30
13817;DHT22;6979;52.116;5.286;2022-07-30T14:26:47;34.30;61.00
13817;DHT22;6979;52.116;5.286;2022-07-30T14:29:14;34.30;60.90
13817;DHT22;6979;52.116;5.286;2022-07-30T14:31:41;34.20;60.70
13817;DHT22;6979;52.116;5.286;2022-07-30T14:34:08;34.10;61.10
13817;DHT22;6979;52.116;5.286;2022-07-30T14:36:37;33.90;61.40
13817;DHT22;6979;52.116;5.286;2022-07-30T14:39:04;33.80;62.00
13817;DHT22;6979;52.116;5.286;2022-07-30T14:41:30;33.70;62.40
13817;DHT22;6979;52.116;5.286;2022-07-30T14:43:57;33.60;61.90
13817;DHT22;6979;52.116;5.286;2022-07-30T14:46:24;33.40;61.80
13817;DHT22;6979;52.116;5.286;2022-07-30T14:48:51;33.30;62.20
13817;DHT22;6979;52.116;5.286;2022-07-30T14:51:17;33.10;62.50
13817;DHT22;6979;52.116;5.286;2022-07-30T14:53:46;32.90;62.80
13817;DHT22;6979;52.116;5.286;2022-07-30T14:56:14;32.70;63.20
13817;DHT22;6979;52.116;5.286;2022-07-30T14:58:41;32.60;63.40
13817;DHT22;6979;52.116;5.286;2022-07-30T15:01:08;32.50;63.90
13817;DHT22;6979;52.116;5.286;2022-07-30T15:03:35;32.40;64.00
13817;DHT22;6979;52.116;5.286;2022-07-30T15:06:02;32.30;64.60
13817;DHT22;6979;52.116;5.286;2022-07-30T15:08:29;32.30;65.00
13817;DHT22;6979;52.116;5.286;2022-07-30T15:10:57;32.30;65.50
13817;DHT22;6979;52.116;5.286;2022-07-30T15:13:24;32.30;65.70
13817;DHT22;6979;52.116;5.286;2022-07-30T15:15:51;32.40;66.20
13817;DHT22;6979;52.116;5.286;2022-07-30T15:18:17;32.50;66.10
13817;DHT22;6979;52.116;5.286;2022-07-30T15:20:44;32.60;66.00
13817;DHT22;6979;52.116;5.286;2022-07-30T15:23:11;32.70;65.90
13817;DHT22;6979;52.116;5.286;2022-07-30T15:25:38;32.90;65.60
13817;DHT22;6979;52.116;5.286;2022-07-30T15:28:07;33.00;65.40
13817;DHT22;6979;52.116;5.286;2022-07-30T15:30:34;33.10;65.30
13817;DHT22;6979;52.116;5.286;2022-07-30T15:33:01;33.20;65.00
13817;DHT22;6979;52.116;5.286;2022-07-30T15:35:28;33.30;64.90
13817;DHT22;6979;52.116;5.286;2022-07-30T15:37:54;33.40;64.80
13817;DHT22;6979;52.116;5.286;2022-07-30T15:40:22;33.50;64.70
13817;DHT22;6979;52.116;5.286;2022-07-30T15:42:49;33.50;64.80
13817;DHT22;6979;52.116;5.286;2022-07-30T15:45:17;33.60;64.70
13817;DHT22;6979;52.116;5.286;2022-07-30T15:47:44;33.70;64.50
13817;DHT22;6979;52.116;5.286;2022-07-30T15:50:14;33.80;64.50
13817;DHT22;6979;52.116;5.286;2022-07-30T15:52:41;33.90;64.30
13817;DHT22;6979;52.116;5.286;2022-07-30T15:55:09;33.90;64.00
13817;DHT22;6979;52.116;5.286;2022-07-30T15:57:36;33.90;63.90
13817;DHT22;6979;52.116;5.286;2022-07-30T16:00:04;34.00;63.70
13817;DHT22;6979;52.116;5.286;2022-07-30T16:02:38;34.00;63.70
13817;DHT22;6979;52.116;5.286;2022-07-30T16:05:06;33.90;63.40
13817;DHT22;6979;52.116;5.286;2022-07-30T16:07:33;33.80;63.50
13817;DHT22;6979;52.116;5.286;2022-07-30T16:10:00;33.80;63.80
13817;DHT22;6979;52.116;5.286;2022-07-30T16:12:27;33.70;63.90